Aérodrome :
LOGIN :

S'inscrire | Disclaimer

   EN    FR    IT 

 










Légende :    VFR   VFR Marginal   IFR   IFR Intensif   IFR Très Intensif
Visi : 
Plafond : 
>= 8 km
>= 3000ft
5 à 8 km
1000 à 3000 ft
1500m à 5 km
500 à 1000 ft
800 à 1500m
200 à 500 ft
< 800m
< 200 ft
Symboles :   Orages  Brouillard  Fortes neiges  Fortes précipitations  Vent > 20 kt
SIGMETs :   Divers  Orages  Givrage  Turbulence  Onde Orograph.  Cendres Volcan.







- Altitude de l'aérodrome : 184 ft
- Code IATA : BRU


EBBR - Bruxelles

DERNIER METAR :
  • 152220Z 16008KT 130V190 3000 FZRA FEW003 BKN024 00/M01 Q1011 BECMG 6000 -FZRA

METARs EXPIRÉS :
  • 152150Z 15009KT 7000 -FZRA FEW009 BKN040 00/M01 Q1011 REFZRA TEMPO 4000 FZRA
  • 152120Z 15009KT 5000 FZRA FEW011 BKN031 00/M02 Q1011 TEMPO 4000 FZRA
  • 152050Z 17011KT 140V200 7000 -FZRA FEW009 BKN035 00/M02 Q1012 TEMPO 4000 FZRA
  • 152020Z 16013KT 9999 -RA FEW049 01/M04 Q1012 TEMPO 4000 RA
  • 151950Z 16015KT 9999 SCT049 01/M05 Q1013 TEMPO 3000 -SN -FZRA BKN008

TAF TAF EBBR
Valide du 15 à 18h jusqu'au 17 à 00h UTC


151700Z 1518/1624 14012KT 9999 BKN040
TEMPO 1518/1521 -SN -FZRA
BECMG 1520/1522 3500 -SN BKN008
PROB40
TEMPO 1521/1524 16016G28KT 1200 SN BKN002
PROB30
TEMPO 1600/1602 -FZRA
BECMG 1602/1604 20010KT 6000 NSW
PROB30 1604/1608 0500 FG BKN001
PROB30
TEMPO 1608/1610 4000 SHRA BKN014TCU
BECMG 1612/1614 SCT008 BKN014
TEMPO 1616/1620 BKN006
Pas de NOTAMs connus pour ce terrain.
3 SIGMETs publiés pour la FIR Brussels (EBBU) :
 
Turbulence forte
EBBU SIGMET 08 VALID 152200/160200 EBBR
EBBU BRUSSELS FIR SEV TURB FCST EAST OF E00330 SFC/FL050 MOV NE 15KT NC=
Givrage fort
EBBU SIGMET 07 VALID 151930/152330 EBBR
EBBU BRUSSELS FIR SEV ICE FCST ENTIRE FIR FL060/180 MOV NE 15KT NC=
Givrage fort avec pluie surfondue
EBBU SIGMET 05 VALID 151900/152300 EBBR
EBBU BRUSSELS FIR SEV ICE (FZRA) OBS ENTIRE FIR SFC/FL020 MOV NE 15KT NC=



MET'MAP, la Météo Aéronautique d'un coup d'oeil ! - Copyright ORBIFLY Décembre 2007 - Disclaimer

ORBIFLY MET'MAP TEAM :

Programmation & Développement : Alexandra Zaïnal
Conception & Développement : Baudouin d'Aumeries
Co-Programmation & Développement : Marc-Olivier Méhu
Soutien technique & logistique : Manuel Goepfert

Contact : metmap@orbifly.com




SOURCES & CREDITS :

   NOAA